sensor_id;sensor_type;location;lat;lon;timestamp;pressure;altitude;pressure_sealevel;temperature;humidity
34065;BME280;20339;49.754;20.158;2023-03-21T00:01:42;96601.67;;;7.75;92.34
34065;BME280;20339;49.754;20.158;2023-03-21T00:04:11;96597.52;;;7.69;92.79
34065;BME280;20339;49.754;20.158;2023-03-21T00:06:41;96595.52;;;7.66;93.25
34065;BME280;20339;49.754;20.158;2023-03-21T00:09:10;96591.52;;;7.65;93.47
34065;BME280;20339;49.754;20.158;2023-03-21T00:11:39;96587.60;;;7.64;93.51
34065;BME280;20339;49.754;20.158;2023-03-21T00:14:09;96581.69;;;7.63;93.57
34065;BME280;20339;49.754;20.158;2023-03-21T00:16:42;96582.11;;;7.64;93.36
34065;BME280;20339;49.754;20.158;2023-03-21T00:19:12;96574.57;;;7.68;93.23
34065;BME280;20339;49.754;20.158;2023-03-21T00:21:42;96573.25;;;7.70;93.15
34065;BME280;20339;49.754;20.158;2023-03-21T00:24:13;96574.94;;;7.64;93.55
34065;BME280;20339;49.754;20.158;2023-03-21T00:26:42;96574.33;;;7.57;93.91
34065;BME280;20339;49.754;20.158;2023-03-21T00:29:11;96571.68;;;7.51;94.31
34065;BME280;20339;49.754;20.158;2023-03-21T00:31:41;96568.33;;;7.45;94.57
34065;BME280;20339;49.754;20.158;2023-03-21T00:34:12;96574.44;;;7.44;94.64
34065;BME280;20339;49.754;20.158;2023-03-21T00:36:41;96577.34;;;7.44;94.92
34065;BME280;20339;49.754;20.158;2023-03-21T00:39:10;96576.54;;;7.45;95.47
34065;BME280;20339;49.754;20.158;2023-03-21T00:41:41;96576.52;;;7.46;95.42
34065;BME280;20339;49.754;20.158;2023-03-21T00:44:11;96573.99;;;7.49;95.61
34065;BME280;20339;49.754;20.158;2023-03-21T00:46:42;96574.32;;;7.50;95.86
34065;BME280;20339;49.754;20.158;2023-03-21T00:49:13;96572.20;;;7.49;95.83
34065;BME280;20339;49.754;20.158;2023-03-21T00:51:43;96571.09;;;7.48;95.88
34065;BME280;20339;49.754;20.158;2023-03-21T00:54:12;96573.58;;;7.49;96.11
34065;BME280;20339;49.754;20.158;2023-03-21T00:56:43;96574.21;;;7.53;96.08
34065;BME280;20339;49.754;20.158;2023-03-21T00:59:12;96573.38;;;7.55;95.90
34065;BME280;20339;49.754;20.158;2023-03-21T01:01:41;96569.41;;;7.57;95.79
34065;BME280;20339;49.754;20.158;2023-03-21T01:04:13;96567.30;;;7.59;95.86
34065;BME280;20339;49.754;20.158;2023-03-21T01:06:43;96565.02;;;7.61;95.85
34065;BME280;20339;49.754;20.158;2023-03-21T01:09:13;96562.70;;;7.61;95.95
34065;BME280;20339;49.754;20.158;2023-03-21T01:11:43;96558.05;;;7.61;95.74
34065;BME280;20339;49.754;20.158;2023-03-21T01:14:13;96561.15;;;7.60;95.79
34065;BME280;20339;49.754;20.158;2023-03-21T01:16:43;96560.08;;;7.57;95.96
34065;BME280;20339;49.754;20.158;2023-03-21T01:19:13;96558.27;;;7.53;96.18
34065;BME280;20339;49.754;20.158;2023-03-21T01:21:43;96557.55;;;7.49;96.41
34065;BME280;20339;49.754;20.158;2023-03-21T01:24:12;96554.27;;;7.47;96.82
34065;BME280;20339;49.754;20.158;2023-03-21T01:26:42;96555.71;;;7.40;97.24
34065;BME280;20339;49.754;20.158;2023-03-21T01:29:11;96554.96;;;7.35;97.59
34065;BME280;20339;49.754;20.158;2023-03-21T01:31:41;96551.92;;;7.30;97.89
34065;BME280;20339;49.754;20.158;2023-03-21T01:34:10;96553.17;;;7.27;97.90
34065;BME280;20339;49.754;20.158;2023-03-21T01:36:40;96551.91;;;7.27;97.86
34065;BME280;20339;49.754;20.158;2023-03-21T01:39:10;96547.11;;;7.27;97.93
34065;BME280;20339;49.754;20.158;2023-03-21T01:41:40;96545.58;;;7.27;97.69
34065;BME280;20339;49.754;20.158;2023-03-21T01:44:10;96546.95;;;7.26;97.67
34065;BME280;20339;49.754;20.158;2023-03-21T01:46:42;96545.63;;;7.25;97.53
34065;BME280;20339;49.754;20.158;2023-03-21T01:49:15;96546.64;;;7.28;97.44
34065;BME280;20339;49.754;20.158;2023-03-21T01:51:48;96544.98;;;7.33;96.98
34065;BME280;20339;49.754;20.158;2023-03-21T01:54:19;96548.63;;;7.38;96.98
34065;BME280;20339;49.754;20.158;2023-03-21T01:56:53;96546.48;;;7.42;96.64
34065;BME280;20339;49.754;20.158;2023-03-21T01:59:25;96542.73;;;7.42;96.55
34065;BME280;20339;49.754;20.158;2023-03-21T02:01:57;96549.06;;;7.43;96.31
34065;BME280;20339;49.754;20.158;2023-03-21T02:04:29;96550.91;;;7.44;96.38
34065;BME280;20339;49.754;20.158;2023-03-21T02:06:59;96546.02;;;7.46;96.39
34065;BME280;20339;49.754;20.158;2023-03-21T02:09:29;96549.36;;;7.49;96.19
34065;BME280;20339;49.754;20.158;2023-03-21T02:12:00;96547.84;;;7.49;96.21
34065;BME280;20339;49.754;20.158;2023-03-21T02:14:29;96541.27;;;7.46;95.95
34065;BME280;20339;49.754;20.158;2023-03-21T02:17:02;96543.68;;;7.44;96.27
34065;BME280;20339;49.754;20.158;2023-03-21T02:22:27;96538.98;;;7.42;96.17
34065;BME280;20339;49.754;20.158;2023-03-21T02:27:58;96538.09;;;7.44;96.18
34065;BME280;20339;49.754;20.158;2023-03-21T02:30:34;96541.06;;;7.46;96.16
34065;BME280;20339;49.754;20.158;2023-03-21T02:33:13;96542.81;;;7.48;95.88
34065;BME280;20339;49.754;20.158;2023-03-21T02:35:53;96544.77;;;7.51;95.92
34065;BME280;20339;49.754;20.158;2023-03-21T02:38:26;96540.98;;;7.54;95.81
34065;BME280;20339;49.754;20.158;2023-03-21T02:41:01;96542.09;;;7.58;95.39
34065;BME280;20339;49.754;20.158;2023-03-21T02:43:34;96540.91;;;7.61;95.29
34065;BME280;20339;49.754;20.158;2023-03-21T02:46:08;96540.11;;;7.62;95.06
34065;BME280;20339;49.754;20.158;2023-03-21T02:48:39;96543.12;;;7.61;95.06
34065;BME280;20339;49.754;20.158;2023-03-21T02:51:09;96546.58;;;7.57;94.91
34065;BME280;20339;49.754;20.158;2023-03-21T02:53:41;96545.09;;;7.55;94.92
34065;BME280;20339;49.754;20.158;2023-03-21T02:56:12;96547.05;;;7.54;94.96
34065;BME280;20339;49.754;20.158;2023-03-21T02:58:42;96544.14;;;7.53;94.82
34065;BME280;20339;49.754;20.158;2023-03-21T03:01:12;96554.80;;;7.56;94.75
34065;BME280;20339;49.754;20.158;2023-03-21T03:03:41;96553.64;;;7.59;94.57
34065;BME280;20339;49.754;20.158;2023-03-21T03:06:14;96554.24;;;7.60;94.62
34065;BME280;20339;49.754;20.158;2023-03-21T03:08:58;96555.06;;;7.58;94.65
34065;BME280;20339;49.754;20.158;2023-03-21T03:11:32;96551.52;;;7.56;94.73
34065;BME280;20339;49.754;20.158;2023-03-21T03:14:20;96554.59;;;7.55;95.05
34065;BME280;20339;49.754;20.158;2023-03-21T03:16:55;96548.41;;;7.55;94.93
34065;BME280;20339;49.754;20.158;2023-03-21T03:19:29;96549.31;;;7.56;95.26
34065;BME280;20339;49.754;20.158;2023-03-21T03:22:00;96549.69;;;7.56;95.33
34065;BME280;20339;49.754;20.158;2023-03-21T03:24:32;96553.21;;;7.53;95.41
34065;BME280;20339;49.754;20.158;2023-03-21T03:27:05;96553.58;;;7.49;95.78
34065;BME280;20339;49.754;20.158;2023-03-21T03:29:37;96551.88;;;7.45;96.00
34065;BME280;20339;49.754;20.158;2023-03-21T03:32:09;96551.34;;;7.42;96.19
34065;BME280;20339;49.754;20.158;2023-03-21T03:34:40;96550.17;;;7.39;96.37
34065;BME280;20339;49.754;20.158;2023-03-21T03:37:12;96549.52;;;7.34;96.48
34065;BME280;20339;49.754;20.158;2023-03-21T03:39:45;96549.59;;;7.29;96.63
34065;BME280;20339;49.754;20.158;2023-03-21T03:42:16;96545.58;;;7.24;96.80
34065;BME280;20339;49.754;20.158;2023-03-21T03:44:46;96541.09;;;7.23;97.14
34065;BME280;20339;49.754;20.158;2023-03-21T03:47:18;96544.27;;;7.24;97.51
34065;BME280;20339;49.754;20.158;2023-03-21T03:49:50;96539.30;;;7.23;97.66
34065;BME280;20339;49.754;20.158;2023-03-21T03:52:25;96538.35;;;7.22;97.71
34065;BME280;20339;49.754;20.158;2023-03-21T03:54:55;96541.62;;;7.20;97.61
34065;BME280;20339;49.754;20.158;2023-03-21T03:57:26;96540.01;;;7.18;97.89
34065;BME280;20339;49.754;20.158;2023-03-21T03:59:55;96540.20;;;7.15;97.85
34065;BME280;20339;49.754;20.158;2023-03-21T04:02:24;96543.00;;;7.13;97.79
34065;BME280;20339;49.754;20.158;2023-03-21T04:04:54;96540.98;;;7.12;98.26
34065;BME280;20339;49.754;20.158;2023-03-21T04:07:24;96543.46;;;7.10;98.24
34065;BME280;20339;49.754;20.158;2023-03-21T04:09:54;96546.09;;;7.07;98.10
34065;BME280;20339;49.754;20.158;2023-03-21T04:12:24;96546.52;;;7.06;98.37
34065;BME280;20339;49.754;20.158;2023-03-21T04:14:53;96549.52;;;7.06;98.35
34065;BME280;20339;49.754;20.158;2023-03-21T04:17:23;96550.52;;;7.05;98.32
34065;BME280;20339;49.754;20.158;2023-03-21T04:19:52;96549.99;;;7.06;98.53
34065;BME280;20339;49.754;20.158;2023-03-21T04:22:21;96555.05;;;7.07;98.36
34065;BME280;20339;49.754;20.158;2023-03-21T04:24:51;96551.52;;;7.08;98.43
34065;BME280;20339;49.754;20.158;2023-03-21T04:27:20;96551.64;;;7.09;98.31
34065;BME280;20339;49.754;20.158;2023-03-21T04:29:49;96550.80;;;7.12;98.23
34065;BME280;20339;49.754;20.158;2023-03-21T04:32:18;96553.91;;;7.13;98.22
34065;BME280;20339;49.754;20.158;2023-03-21T04:34:51;96552.23;;;7.12;98.11
34065;BME280;20339;49.754;20.158;2023-03-21T04:37:21;96554.95;;;7.10;98.17
34065;BME280;20339;49.754;20.158;2023-03-21T04:39:52;96553.01;;;7.08;98.28
34065;BME280;20339;49.754;20.158;2023-03-21T04:42:21;96554.79;;;7.07;98.19
34065;BME280;20339;49.754;20.158;2023-03-21T04:44:51;96554.73;;;7.05;98.48
34065;BME280;20339;49.754;20.158;2023-03-21T04:47:20;96556.30;;;7.03;98.51
34065;BME280;20339;49.754;20.158;2023-03-21T04:49:50;96555.48;;;7.02;98.39
34065;BME280;20339;49.754;20.158;2023-03-21T04:52:20;96549.52;;;7.00;98.76
34065;BME280;20339;49.754;20.158;2023-03-21T04:54:51;96555.11;;;7.00;98.89
34065;BME280;20339;49.754;20.158;2023-03-21T04:57:20;96555.79;;;6.98;99.01
34065;BME280;20339;49.754;20.158;2023-03-21T04:59:49;96554.58;;;6.97;99.14
34065;BME280;20339;49.754;20.158;2023-03-21T05:02:19;96556.95;;;6.96;99.00
34065;BME280;20339;49.754;20.158;2023-03-21T05:04:48;96562.00;;;6.96;98.97
34065;BME280;20339;49.754;20.158;2023-03-21T05:07:17;96564.32;;;6.94;98.93
34065;BME280;20339;49.754;20.158;2023-03-21T05:09:47;96561.89;;;6.93;99.00
34065;BME280;20339;49.754;20.158;2023-03-21T05:12:16;96570.91;;;6.94;98.97
34065;BME280;20339;49.754;20.158;2023-03-21T05:14:46;96566.44;;;6.96;98.71
34065;BME280;20339;49.754;20.158;2023-03-21T05:17:15;96561.07;;;7.00;98.67
34065;BME280;20339;49.754;20.158;2023-03-21T05:19:50;96563.90;;;7.04;98.56
34065;BME280;20339;49.754;20.158;2023-03-21T05:22:20;96560.13;;;7.10;98.36
34065;BME280;20339;49.754;20.158;2023-03-21T05:24:51;96563.29;;;7.12;98.17
34065;BME280;20339;49.754;20.158;2023-03-21T05:27:22;96559.91;;;7.09;98.10
34065;BME280;20339;49.754;20.158;2023-03-21T05:30:04;96558.48;;;7.07;97.69
34065;BME280;20339;49.754;20.158;2023-03-21T05:32:34;96557.05;;;7.05;97.78
34065;BME280;20339;49.754;20.158;2023-03-21T05:35:04;96558.34;;;7.03;97.91
34065;BME280;20339;49.754;20.158;2023-03-21T05:37:33;96560.48;;;6.99;97.73
34065;BME280;20339;49.754;20.158;2023-03-21T05:40:03;96567.64;;;6.97;97.96
34065;BME280;20339;49.754;20.158;2023-03-21T05:42:34;96568.38;;;6.96;98.02
34065;BME280;20339;49.754;20.158;2023-03-21T05:45:03;96572.97;;;6.97;98.25
34065;BME280;20339;49.754;20.158;2023-03-21T05:47:33;96576.35;;;6.98;98.21
34065;BME280;20339;49.754;20.158;2023-03-21T05:50:03;96573.61;;;6.99;98.22
34065;BME280;20339;49.754;20.158;2023-03-21T05:52:32;96578.30;;;7.00;98.11
34065;BME280;20339;49.754;20.158;2023-03-21T05:55:05;96579.84;;;7.02;98.09
34065;BME280;20339;49.754;20.158;2023-03-21T05:57:35;96578.15;;;7.03;98.02
34065;BME280;20339;49.754;20.158;2023-03-21T06:00:10;96580.58;;;7.03;97.99
34065;BME280;20339;49.754;20.158;2023-03-21T06:02:39;96576.08;;;7.04;97.72
34065;BME280;20339;49.754;20.158;2023-03-21T06:05:12;96574.30;;;7.09;97.78
34065;BME280;20339;49.754;20.158;2023-03-21T06:07:41;96575.70;;;7.15;97.57
34065;BME280;20339;49.754;20.158;2023-03-21T06:10:12;96578.85;;;7.21;97.28
34065;BME280;20339;49.754;20.158;2023-03-21T06:12:41;96579.86;;;7.24;97.13
34065;BME280;20339;49.754;20.158;2023-03-21T06:15:11;96578.04;;;7.32;97.27
34065;BME280;20339;49.754;20.158;2023-03-21T06:17:42;96578.28;;;7.42;97.24
34065;BME280;20339;49.754;20.158;2023-03-21T06:20:11;96574.64;;;7.52;96.97
34065;BME280;20339;49.754;20.158;2023-03-21T06:22:41;96575.98;;;7.60;96.77
34065;BME280;20339;49.754;20.158;2023-03-21T06:25:10;96582.44;;;7.67;96.50
34065;BME280;20339;49.754;20.158;2023-03-21T06:27:39;96578.09;;;7.82;95.96
34065;BME280;20339;49.754;20.158;2023-03-21T06:30:10;96578.05;;;7.96;95.79
34065;BME280;20339;49.754;20.158;2023-03-21T06:32:39;96574.94;;;8.34;95.96
34065;BME280;20339;49.754;20.158;2023-03-21T06:35:09;96574.62;;;8.94;96.19
34065;BME280;20339;49.754;20.158;2023-03-21T06:37:38;96577.94;;;9.19;94.18
34065;BME280;20339;49.754;20.158;2023-03-21T06:40:10;96577.39;;;9.08;92.96
34065;BME280;20339;49.754;20.158;2023-03-21T06:42:40;96575.67;;;8.94;92.45
34065;BME280;20339;49.754;20.158;2023-03-21T06:45:10;96575.75;;;8.87;92.35
34065;BME280;20339;49.754;20.158;2023-03-21T06:47:39;96581.00;;;8.80;92.54
34065;BME280;20339;49.754;20.158;2023-03-21T06:50:09;96580.80;;;8.77;92.38
34065;BME280;20339;49.754;20.158;2023-03-21T06:52:38;96582.70;;;8.69;92.18
34065;BME280;20339;49.754;20.158;2023-03-21T06:55:08;96583.73;;;8.55;91.53
34065;BME280;20339;49.754;20.158;2023-03-21T06:57:38;96586.77;;;8.36;90.93
34065;BME280;20339;49.754;20.158;2023-03-21T07:00:08;96584.21;;;8.21;90.91
34065;BME280;20339;49.754;20.158;2023-03-21T07:02:38;96589.70;;;8.16;91.15
34065;BME280;20339;49.754;20.158;2023-03-21T07:05:08;96590.96;;;8.14;91.15
34065;BME280;20339;49.754;20.158;2023-03-21T07:07:37;96591.81;;;8.12;91.24
34065;BME280;20339;49.754;20.158;2023-03-21T07:10:07;96592.39;;;8.10;90.90
34065;BME280;20339;49.754;20.158;2023-03-21T07:12:37;96592.77;;;8.11;90.93
34065;BME280;20339;49.754;20.158;2023-03-21T07:15:07;96600.95;;;8.14;91.30
34065;BME280;20339;49.754;20.158;2023-03-21T07:17:37;96605.70;;;8.16;91.34
34065;BME280;20339;49.754;20.158;2023-03-21T07:20:07;96606.86;;;8.14;91.01
34065;BME280;20339;49.754;20.158;2023-03-21T07:22:36;96604.53;;;8.07;90.89
34065;BME280;20339;49.754;20.158;2023-03-21T07:25:07;96605.76;;;8.04;91.16
34065;BME280;20339;49.754;20.158;2023-03-21T07:27:36;96608.17;;;8.08;91.18
34065;BME280;20339;49.754;20.158;2023-03-21T07:30:07;96608.02;;;8.09;91.32
34065;BME280;20339;49.754;20.158;2023-03-21T07:32:37;96606.27;;;8.10;91.32
34065;BME280;20339;49.754;20.158;2023-03-21T07:35:08;96602.16;;;8.15;91.19
34065;BME280;20339;49.754;20.158;2023-03-21T07:37:39;96596.95;;;8.19;90.96
34065;BME280;20339;49.754;20.158;2023-03-21T07:40:09;96599.59;;;8.22;91.57
34065;BME280;20339;49.754;20.158;2023-03-21T07:42:41;96590.34;;;8.26;91.42
34065;BME280;20339;49.754;20.158;2023-03-21T07:45:10;96591.19;;;8.26;91.18
34065;BME280;20339;49.754;20.158;2023-03-21T07:47:42;96591.77;;;8.30;91.39
34065;BME280;20339;49.754;20.158;2023-03-21T07:50:11;96591.15;;;8.31;91.17
34065;BME280;20339;49.754;20.158;2023-03-21T07:52:41;96589.39;;;8.27;90.51
34065;BME280;20339;49.754;20.158;2023-03-21T07:55:10;96590.48;;;8.35;90.51
34065;BME280;20339;49.754;20.158;2023-03-21T07:57:40;96589.48;;;8.57;90.66
34065;BME280;20339;49.754;20.158;2023-03-21T08:00:10;96589.27;;;8.93;90.82
34065;BME280;20339;49.754;20.158;2023-03-21T08:02:40;96586.45;;;9.34;89.79
34065;BME280;20339;49.754;20.158;2023-03-21T08:05:10;96587.45;;;9.50;88.09
34065;BME280;20339;49.754;20.158;2023-03-21T08:07:39;96586.68;;;9.69;87.44
34065;BME280;20339;49.754;20.158;2023-03-21T08:10:09;96586.98;;;9.88;87.00
34065;BME280;20339;49.754;20.158;2023-03-21T08:12:39;96582.66;;;10.21;86.67
34065;BME280;20339;49.754;20.158;2023-03-21T08:15:09;96586.59;;;10.45;85.48
34065;BME280;20339;49.754;20.158;2023-03-21T08:17:39;96585.56;;;10.40;82.55
34065;BME280;20339;49.754;20.158;2023-03-21T08:20:13;96590.16;;;10.36;82.27
34065;BME280;20339;49.754;20.158;2023-03-21T08:22:43;96585.80;;;10.80;82.58
34065;BME280;20339;49.754;20.158;2023-03-21T08:25:13;96581.64;;;11.99;82.64
34065;BME280;20339;49.754;20.158;2023-03-21T08:27:45;96573.84;;;12.75;78.82
34065;BME280;20339;49.754;20.158;2023-03-21T08:30:15;96576.30;;;12.32;75.91
34065;BME280;20339;49.754;20.158;2023-03-21T08:32:45;96578.34;;;11.69;75.31
34065;BME280;20339;49.754;20.158;2023-03-21T08:35:15;96584.27;;;11.11;75.13
34065;BME280;20339;49.754;20.158;2023-03-21T08:37:45;96586.16;;;10.69;75.75
34065;BME280;20339;49.754;20.158;2023-03-21T08:40:15;96592.60;;;10.49;77.06
34065;BME280;20339;49.754;20.158;2023-03-21T08:42:47;96594.61;;;10.42;78.02
34065;BME280;20339;49.754;20.158;2023-03-21T08:45:16;96597.55;;;10.32;78.37
34065;BME280;20339;49.754;20.158;2023-03-21T08:47:46;96602.15;;;10.25;78.97
34065;BME280;20339;49.754;20.158;2023-03-21T08:50:16;96608.64;;;10.31;79.51
34065;BME280;20339;49.754;20.158;2023-03-21T08:52:46;96606.34;;;10.25;79.46
34065;BME280;20339;49.754;20.158;2023-03-21T08:55:16;96609.53;;;10.10;79.64
34065;BME280;20339;49.754;20.158;2023-03-21T08:57:46;96610.32;;;10.05;79.72
34065;BME280;20339;49.754;20.158;2023-03-21T09:00:16;96610.22;;;10.03;79.69
34065;BME280;20339;49.754;20.158;2023-03-21T09:02:47;96610.57;;;10.06;79.63
34065;BME280;20339;49.754;20.158;2023-03-21T09:05:18;96608.61;;;10.18;79.17
34065;BME280;20339;49.754;20.158;2023-03-21T09:07:48;96615.33;;;10.30;79.05
34065;BME280;20339;49.754;20.158;2023-03-21T09:10:20;96613.34;;;10.39;78.76
34065;BME280;20339;49.754;20.158;2023-03-21T09:12:51;96610.46;;;10.62;79.17
34065;BME280;20339;49.754;20.158;2023-03-21T09:15:21;96608.50;;;10.80;78.16
34065;BME280;20339;49.754;20.158;2023-03-21T09:17:51;96604.80;;;10.91;78.06
34065;BME280;20339;49.754;20.158;2023-03-21T09:20:23;96609.69;;;11.16;78.13
34065;BME280;20339;49.754;20.158;2023-03-21T09:22:57;96609.75;;;11.15;75.10
34065;BME280;20339;49.754;20.158;2023-03-21T09:25:28;96606.41;;;11.01;74.83
34065;BME280;20339;49.754;20.158;2023-03-21T09:27:59;96604.84;;;10.86;73.68
34065;BME280;20339;49.754;20.158;2023-03-21T09:30:29;96605.48;;;10.61;74.10
34065;BME280;20339;49.754;20.158;2023-03-21T09:32:59;96608.77;;;10.55;74.81
34065;BME280;20339;49.754;20.158;2023-03-21T09:35:28;96612.59;;;10.49;75.15
34065;BME280;20339;49.754;20.158;2023-03-21T09:37:58;96610.67;;;10.41;74.70
34065;BME280;20339;49.754;20.158;2023-03-21T09:40:36;96610.20;;;10.25;74.82
34065;BME280;20339;49.754;20.158;2023-03-21T09:43:13;96614.23;;;10.14;75.75
34065;BME280;20339;49.754;20.158;2023-03-21T09:45:49;96614.34;;;10.12;76.40
34065;BME280;20339;49.754;20.158;2023-03-21T09:48:23;96616.23;;;10.18;76.26
34065;BME280;20339;49.754;20.158;2023-03-21T09:51:00;96615.55;;;10.14;76.34
34065;BME280;20339;49.754;20.158;2023-03-21T09:53:33;96619.05;;;10.05;76.13
34065;BME280;20339;49.754;20.158;2023-03-21T09:56:04;96611.07;;;9.92;76.10
34065;BME280;20339;49.754;20.158;2023-03-21T09:58:36;96609.15;;;9.85;76.80
34065;BME280;20339;49.754;20.158;2023-03-21T10:01:08;96611.34;;;9.99;77.49
34065;BME280;20339;49.754;20.158;2023-03-21T10:03:49;96606.81;;;10.24;77.58
34065;BME280;20339;49.754;20.158;2023-03-21T10:06:20;96606.80;;;10.34;77.37
34065;BME280;20339;49.754;20.158;2023-03-21T10:09:00;96608.94;;;10.32;77.06
34065;BME280;20339;49.754;20.158;2023-03-21T10:11:35;96611.04;;;10.28;76.73
34065;BME280;20339;49.754;20.158;2023-03-21T10:14:11;96606.04;;;10.23;77.43
34065;BME280;20339;49.754;20.158;2023-03-21T10:16:42;96612.02;;;10.32;77.59
34065;BME280;20339;49.754;20.158;2023-03-21T10:19:13;96611.49;;;10.32;77.09
34065;BME280;20339;49.754;20.158;2023-03-21T10:21:44;96611.89;;;10.27;77.66
34065;BME280;20339;49.754;20.158;2023-03-21T10:24:15;96610.00;;;10.23;77.58
34065;BME280;20339;49.754;20.158;2023-03-21T10:26:45;96614.65;;;10.14;77.81
34065;BME280;20339;49.754;20.158;2023-03-21T10:29:15;96617.91;;;10.02;78.06
34065;BME280;20339;49.754;20.158;2023-03-21T10:31:45;96618.83;;;9.89;78.60
34065;BME280;20339;49.754;20.158;2023-03-21T10:34:16;96623.28;;;9.65;79.15
34065;BME280;20339;49.754;20.158;2023-03-21T10:36:46;96623.86;;;9.51;80.07
34065;BME280;20339;49.754;20.158;2023-03-21T10:39:19;96625.70;;;9.38;81.00
34065;BME280;20339;49.754;20.158;2023-03-21T10:41:49;96627.11;;;9.25;82.03
34065;BME280;20339;49.754;20.158;2023-03-21T10:44:19;96629.73;;;9.12;82.89
34065;BME280;20339;49.754;20.158;2023-03-21T10:46:52;96629.02;;;9.02;83.66
34065;BME280;20339;49.754;20.158;2023-03-21T10:49:22;96635.11;;;8.96;84.26
34065;BME280;20339;49.754;20.158;2023-03-21T10:51:55;96634.36;;;8.97;84.75
34065;BME280;20339;49.754;20.158;2023-03-21T10:54:27;96634.58;;;8.98;84.75
34065;BME280;20339;49.754;20.158;2023-03-21T10:57:00;96628.73;;;8.90;85.24
34065;BME280;20339;49.754;20.158;2023-03-21T10:59:35;96631.06;;;8.76;85.52
34065;BME280;20339;49.754;20.158;2023-03-21T11:02:06;96632.02;;;8.63;85.64
34065;BME280;20339;49.754;20.158;2023-03-21T11:04:44;96628.84;;;8.54;86.09
34065;BME280;20339;49.754;20.158;2023-03-21T11:07:15;96634.60;;;8.47;86.62
34065;BME280;20339;49.754;20.158;2023-03-21T11:09:49;96640.40;;;8.43;86.81
34065;BME280;20339;49.754;20.158;2023-03-21T11:12:28;96635.36;;;8.45;87.27
34065;BME280;20339;49.754;20.158;2023-03-21T11:14:58;96643.20;;;8.41;87.70
34065;BME280;20339;49.754;20.158;2023-03-21T11:17:42;96640.05;;;8.37;87.93
34065;BME280;20339;49.754;20.158;2023-03-21T11:20:16;96642.58;;;8.36;88.23
34065;BME280;20339;49.754;20.158;2023-03-21T11:22:46;96643.94;;;8.34;88.66
34065;BME280;20339;49.754;20.158;2023-03-21T11:25:20;96641.06;;;8.30;88.76
34065;BME280;20339;49.754;20.158;2023-03-21T11:27:51;96638.79;;;8.26;89.20
34065;BME280;20339;49.754;20.158;2023-03-21T11:30:21;96637.08;;;8.34;89.39
34065;BME280;20339;49.754;20.158;2023-03-21T11:32:52;96632.38;;;8.45;89.39
34065;BME280;20339;49.754;20.158;2023-03-21T11:35:22;96627.36;;;8.53;89.21
34065;BME280;20339;49.754;20.158;2023-03-21T11:37:53;96629.52;;;8.57;88.76
34065;BME280;20339;49.754;20.158;2023-03-21T11:40:24;96621.23;;;8.60;88.70
34065;BME280;20339;49.754;20.158;2023-03-21T11:42:54;96620.45;;;8.69;88.66
34065;BME280;20339;49.754;20.158;2023-03-21T11:45:24;96620.34;;;8.76;88.25
34065;BME280;20339;49.754;20.158;2023-03-21T11:47:55;96621.81;;;8.79;88.26
34065;BME280;20339;49.754;20.158;2023-03-21T11:50:30;96618.10;;;8.82;87.93
34065;BME280;20339;49.754;20.158;2023-03-21T11:53:09;96615.92;;;8.86;88.14
34065;BME280;20339;49.754;20.158;2023-03-21T11:55:46;96616.47;;;8.90;87.92
34065;BME280;20339;49.754;20.158;2023-03-21T11:58:24;96620.06;;;8.90;87.79
34065;BME280;20339;49.754;20.158;2023-03-21T12:01:02;96614.77;;;8.92;87.91
34065;BME280;20339;49.754;20.158;2023-03-21T12:03:53;96607.98;;;8.98;88.33
34065;BME280;20339;49.754;20.158;2023-03-21T12:06:27;96611.17;;;9.16;88.39
34065;BME280;20339;49.754;20.158;2023-03-21T12:09:01;96609.42;;;9.27;87.84
34065;BME280;20339;49.754;20.158;2023-03-21T12:11:35;96606.15;;;9.28;87.46
34065;BME280;20339;49.754;20.158;2023-03-21T12:14:10;96603.69;;;9.21;86.80
34065;BME280;20339;49.754;20.158;2023-03-21T12:16:44;96608.04;;;9.21;86.73
34065;BME280;20339;49.754;20.158;2023-03-21T12:19:20;96601.77;;;9.24;86.71
34065;BME280;20339;49.754;20.158;2023-03-21T12:21:57;96602.73;;;9.29;86.33
34065;BME280;20339;49.754;20.158;2023-03-21T12:24:31;96603.10;;;9.40;85.92
34065;BME280;20339;49.754;20.158;2023-03-21T12:27:03;96597.59;;;9.47;85.38
34065;BME280;20339;49.754;20.158;2023-03-21T12:29:42;96598.94;;;9.51;85.29
34065;BME280;20339;49.754;20.158;2023-03-21T12:32:21;96596.63;;;9.45;85.25
34065;BME280;20339;49.754;20.158;2023-03-21T12:37:38;96590.92;;;9.28;85.22
34065;BME280;20339;49.754;20.158;2023-03-21T12:40:11;96593.33;;;9.20;85.72
34065;BME280;20339;49.754;20.158;2023-03-21T12:42:53;96591.38;;;9.18;85.99
34065;BME280;20339;49.754;20.158;2023-03-21T12:45:28;96585.37;;;9.26;85.80
34065;BME280;20339;49.754;20.158;2023-03-21T12:48:01;96583.88;;;9.30;84.08
34065;BME280;20339;49.754;20.158;2023-03-21T12:50:32;96579.15;;;9.35;83.53
34065;BME280;20339;49.754;20.158;2023-03-21T12:53:13;96577.86;;;9.40;82.93
34065;BME280;20339;49.754;20.158;2023-03-21T12:55:50;96582.64;;;9.38;82.43
34065;BME280;20339;49.754;20.158;2023-03-21T12:58:23;96582.40;;;9.32;81.81
34065;BME280;20339;49.754;20.158;2023-03-21T13:00:55;96581.68;;;9.23;80.77
34065;BME280;20339;49.754;20.158;2023-03-21T13:03:28;96583.41;;;9.11;80.17
34065;BME280;20339;49.754;20.158;2023-03-21T13:05:59;96583.75;;;9.01;79.66
34065;BME280;20339;49.754;20.158;2023-03-21T13:08:31;96583.04;;;8.92;80.32
34065;BME280;20339;49.754;20.158;2023-03-21T13:11:02;96582.09;;;8.90;80.47
34065;BME280;20339;49.754;20.158;2023-03-21T13:13:34;96580.46;;;8.87;81.16
34065;BME280;20339;49.754;20.158;2023-03-21T13:16:09;96581.83;;;8.82;81.53
34065;BME280;20339;49.754;20.158;2023-03-21T13:18:47;96577.63;;;8.71;81.63
34065;BME280;20339;49.754;20.158;2023-03-21T13:21:23;96580.55;;;8.65;82.50
34065;BME280;20339;49.754;20.158;2023-03-21T13:23:59;96583.13;;;8.66;82.72
34065;BME280;20339;49.754;20.158;2023-03-21T13:26:39;96579.52;;;8.67;82.94
34065;BME280;20339;49.754;20.158;2023-03-21T13:29:13;96583.33;;;8.69;83.05